LFOH/LEH METAR and TAF weather

Enter ICAO airport designator
Station Type Date Time Source
LFOH METAR 2019/02/16 07:00 UTC NOAA

LFOH 160700Z AUTO 22006KT 9999 // NSC 06/03 Q1025


Station Type Date Time Source
LFOH Decoded METAR 2019/02/16 07:00 UTC NOAA

La Heve, France (LFOH) 49-31N 000-04E 103M
Feb 16, 2019 - 02:00 AM EST / 2019.02.16 0700 UTC
Wind: from the SW (220 degrees) at 7 MPH (6 KT):0
Visibility: greater than 7 mile(s):0
Temperature: 42 F (6 C)
Dew Point: 37 F (3 C)
Relative Humidity: 81%
Pressure (altimeter): 30.27 in. Hg (1025 hPa)
ob: LFOH 160700Z AUTO 22006KT 9999 // NSC 06/03 Q1025
cycle: 7

Station Type Date Time Source
LFOH TAF 2019/02/16 06:21 UTC NOAA

TAF LFOH 160500Z 1606/1706 17005KT CAVOK


Example: see airport list